KPIM/PIM METAR and TAF weather

Enter ICAO airport designator
Station Type Date Time Source
KPIM METAR 2019/12/14 17:15 UTC NOAA

KPIM 141715Z AUTO 28007KT 10SM OVC018 09/05 A2983 RMK AO2 LTG DSNT ALQDS T00930050


Station Type Date Time Source
KPIM Decoded METAR 2019/12/14 17:15 UTC NOAA

Station name not available
Dec 14, 2019 - 12:15 PM EST / 2019.12.14 1715 UTC
Wind: from the W (280 degrees) at 8 MPH (7 KT):0
Visibility: 10 mile(s):0
Sky conditions: overcast
Weather: Lightning observed
Temperature: 48.7 F (9.3 C)
Dew Point: 41.0 F (5.0 C)
Relative Humidity: 74%
Pressure (altimeter): 29.83 in. Hg (1010 hPa)
ob: KPIM 141715Z AUTO 28007KT 10SM OVC018 09/05 A2983 RMK AO2 LTG DSNT ALQDS T00930050
cycle: 17

Station Type Date Time Source
KPIM TAF UTC NOAA

Error!

Example: see airport list